createdAt,value
2018-04-07T00:02:28.830Z,60.84
2018-04-07T00:04:57.059Z,61.78
2018-04-07T00:07:25.402Z,61.39
2018-04-07T00:09:53.675Z,62.28
2018-04-07T00:12:21.904Z,62.99
2018-04-07T00:14:50.160Z,63.61
2018-04-07T00:17:18.413Z,63.89
2018-04-07T00:19:46.682Z,64.96
2018-04-07T00:22:14.964Z,65.66
2018-04-07T00:24:43.217Z,66.53
2018-04-07T00:27:11.501Z,66.71
2018-04-07T00:29:40.507Z,66.95
2018-04-07T00:32:09.510Z,68.18
2018-04-07T00:34:38.526Z,68.39
2018-04-07T00:37:06.772Z,68.46
2018-04-07T00:39:35.027Z,69.41
2018-04-07T00:42:03.275Z,69.94
2018-04-07T00:44:32.270Z,69.68
2018-04-07T00:47:01.956Z,69.96
2018-04-07T00:49:30.169Z,69.95
2018-04-07T00:51:58.418Z,70.92
2018-04-07T00:54:26.644Z,70.91
2018-04-07T00:56:54.902Z,71.59
2018-04-07T00:59:23.161Z,71.83
2018-04-07T01:01:52.175Z,72.41
2018-04-07T01:04:20.410Z,73.12
2018-04-07T01:06:48.652Z,74.44
2018-04-07T01:09:16.924Z,75.06
2018-04-07T01:11:45.168Z,76.69
2018-04-07T01:14:13.441Z,76.22
2018-04-07T01:16:41.702Z,76.61
2018-04-07T01:19:09.944Z,77.18
2018-04-07T01:21:38.180Z,77.54
2018-04-07T01:24:07.197Z,77.63
2018-04-07T01:26:35.448Z,77.39
2018-04-07T01:29:04.476Z,77.51
2018-04-07T01:31:33.596Z,77.97
2018-04-07T01:34:01.831Z,78.52
2018-04-07T01:36:30.060Z,78.69
2018-04-07T01:38:59.064Z,78.31
2018-04-07T01:41:27.301Z,78.34
2018-04-07T01:43:55.561Z,79.29
2018-04-07T01:46:23.834Z,79.62
2018-04-07T01:48:52.091Z,80.24
2018-04-07T01:51:20.320Z,79.59
2018-04-07T01:53:49.329Z,79.86
2018-04-07T01:56:17.598Z,79.65
2018-04-07T01:58:46.613Z,80.22
2018-04-07T02:01:15.616Z,80.61
2018-04-07T02:03:44.737Z,81.34
2018-04-07T02:06:12.974Z,81.37
2018-04-07T02:08:41.237Z,81.08
2018-04-07T02:11:09.477Z,81.37
2018-04-07T02:13:37.736Z,81.56
2018-04-07T02:16:05.966Z,80.79
2018-04-07T02:18:34.976Z,81.08
2018-04-07T02:21:03.220Z,80.88
2018-04-07T02:23:31.467Z,81.61
2018-04-07T02:26:01.221Z,81.21
2018-04-07T02:28:29.504Z,81.24
2018-04-07T02:30:58.667Z,80.90
2018-04-07T02:33:27.688Z,80.63
2018-04-07T02:35:56.803Z,79.50
2018-04-07T02:38:25.042Z,80.39
2018-04-07T02:40:54.061Z,80.58
2018-04-07T02:43:22.295Z,81.07
2018-04-07T02:45:50.565Z,81.11
2018-04-07T02:48:19.553Z,80.60
2018-04-07T02:50:48.577Z,79.97
2018-04-07T02:53:16.829Z,79.29
2018-04-07T02:55:45.104Z,78.81
2018-04-07T02:58:13.337Z,79.02
2018-04-07T03:00:42.388Z,79.69
2018-04-07T03:03:10.648Z,79.93
2018-04-07T03:05:38.892Z,80.59
2018-04-07T03:08:07.126Z,80.62
2018-04-07T03:10:35.367Z,80.30
2018-04-07T03:13:03.599Z,79.24
2018-04-07T03:15:32.641Z,79.33
2018-04-07T03:18:01.790Z,78.73
2018-04-07T03:20:30.830Z,78.98
2018-04-07T03:22:59.059Z,78.21
2018-04-07T03:25:27.306Z,79.31
2018-04-07T03:27:55.553Z,79.28
2018-04-07T03:30:23.784Z,80.34
2018-04-07T03:32:52.034Z,80.73
2018-04-07T03:35:20.332Z,81.21
2018-04-07T03:37:50.120Z,81.17
2018-04-07T03:40:18.371Z,82.01
2018-04-07T03:42:46.614Z,81.73
2018-04-07T03:45:14.890Z,81.12
2018-04-07T03:47:43.196Z,80.84
2018-04-07T03:50:11.507Z,81.59
2018-04-07T03:52:40.516Z,80.93
2018-04-07T03:55:10.304Z,80.13
2018-04-07T03:57:38.556Z,80.93
2018-04-07T04:00:06.839Z,80.87
2018-04-07T04:02:36.228Z,80.30
2018-04-07T04:05:04.471Z,80.28
2018-04-07T04:07:32.721Z,80.89
2018-04-07T04:10:01.728Z,81.51
2018-04-07T04:12:30.017Z,81.85
2018-04-07T04:14:59.018Z,81.90
2018-04-07T04:17:27.349Z,82.44
2018-04-07T04:19:55.585Z,82.79
2018-04-07T04:22:24.619Z,82.66
2018-04-07T04:24:53.625Z,82.10
2018-04-07T04:27:21.892Z,81.31
2018-04-07T04:29:50.901Z,80.78
2018-04-07T04:32:19.905Z,80.45
2018-04-07T04:34:48.913Z,79.21
2018-04-07T04:37:17.951Z,79.36
2018-04-07T04:39:46.184Z,78.72
2018-04-07T04:42:14.465Z,79.02
2018-04-07T04:44:42.722Z,79.11
2018-04-07T04:47:11.007Z,79.62
2018-04-07T04:49:39.248Z,79.31
2018-04-07T04:52:08.274Z,79.12
2018-04-07T04:54:37.269Z,80.10
2018-04-07T04:57:06.314Z,79.96
2018-04-07T04:59:34.566Z,79.88
2018-04-07T05:02:03.591Z,79.79
2018-04-07T05:04:31.933Z,79.07
2018-04-07T05:07:00.610Z,80.12
2018-04-07T05:09:28.841Z,80.62
2018-04-07T05:11:57.860Z,80.81
2018-04-07T05:14:26.865Z,80.89
2018-04-07T05:16:55.892Z,80.77
2018-04-07T05:19:24.130Z,79.46
2018-04-07T05:21:52.361Z,79.18
2018-04-07T05:24:20.609Z,79.29
2018-04-07T05:26:48.848Z,79.74
2018-04-07T05:29:17.106Z,79.22
2018-04-07T05:31:46.130Z,78.59
2018-04-07T05:34:15.126Z,78.81
2018-04-07T05:36:44.137Z,78.90
2018-04-07T05:39:13.189Z,77.84
2018-04-07T05:41:41.446Z,78.01
2018-04-07T05:44:09.732Z,77.18
2018-04-07T05:46:38.729Z,76.58
2018-04-07T05:49:07.774Z,76.22
2018-04-07T05:51:36.003Z,75.94
2018-04-07T05:54:04.263Z,75.61
2018-04-07T05:56:32.500Z,75.70
2018-04-07T05:59:01.535Z,74.96
2018-04-07T06:01:30.546Z,74.14
2018-04-07T06:03:58.806Z,74.01
2018-04-07T06:06:27.809Z,73.24
2018-04-07T06:08:56.069Z,72.24
2018-04-07T06:11:24.496Z,72.26
2018-04-07T06:13:54.292Z,71.58
2018-04-07T06:16:23.565Z,71.01
2018-04-07T06:18:59.968Z,70.83
2018-04-07T06:21:29.499Z,69.80
2018-04-07T06:23:58.390Z,68.83
2018-04-07T06:26:27.731Z,68.51
2018-04-07T06:28:56.772Z,67.20
2018-04-07T06:31:25.026Z,66.52
2018-04-07T06:33:53.281Z,65.70
2018-04-07T06:36:23.625Z,65.79
2018-04-07T06:38:51.949Z,64.66
2018-04-07T06:41:20.189Z,64.51
2018-04-07T06:43:49.205Z,63.89
2018-04-07T06:46:19.227Z,62.24
2018-04-07T06:48:47.618Z,62.13
2018-04-07T06:51:16.626Z,60.91
2018-04-07T06:53:44.919Z,60.29
2018-04-07T06:56:13.194Z,60.17
2018-04-07T06:58:41.437Z,59.66
2018-04-07T07:01:09.695Z,58.82
2018-04-07T07:03:37.933Z,57.65
2018-04-07T07:06:06.205Z,58.21
2018-04-07T07:08:34.462Z,58.53
2018-04-07T07:11:02.744Z,58.08
2018-04-07T07:13:30.984Z,56.61
2018-04-07T07:15:59.249Z,56.08
2018-04-07T07:18:28.257Z,55.74
2018-04-07T07:20:56.525Z,56.24
2018-04-07T07:23:24.771Z,55.62
2018-04-07T07:25:53.840Z,54.37
2018-04-07T07:28:22.096Z,54.93
2018-04-07T07:30:51.515Z,54.72
2018-04-07T07:33:19.768Z,54.38
2018-04-07T07:35:48.815Z,54.51
2018-04-07T07:38:17.062Z,53.87
2018-04-07T07:40:45.334Z,52.77
2018-04-07T07:43:13.591Z,53.08
2018-04-07T07:45:42.076Z,53.32
2018-04-07T07:48:10.410Z,52.61
2018-04-07T07:50:38.676Z,51.67
2018-04-07T07:53:06.934Z,52.58
2018-04-07T07:55:35.222Z,50.82
2018-04-07T07:58:03.471Z,50.88
2018-04-07T08:00:31.741Z,49.97
2018-04-07T08:02:59.996Z,49.84
2018-04-07T08:05:28.259Z,52.01
2018-04-07T08:07:57.264Z,48.92
2018-04-07T08:10:26.305Z,48.90
2018-04-07T08:12:54.573Z,48.68
2018-04-07T08:15:22.844Z,48.36
2018-04-07T08:17:51.860Z,47.41
2018-04-07T08:20:20.908Z,46.09
2018-04-07T08:22:49.141Z,45.81
2018-04-07T08:25:18.193Z,46.17
2018-04-07T08:27:46.438Z,45.96
2018-04-07T08:30:14.750Z,45.84
2018-04-07T08:32:43.857Z,45.00
2018-04-07T08:35:12.877Z,44.46
2018-04-07T08:37:41.158Z,44.20
2018-04-07T08:40:09.406Z,44.81
2018-04-07T08:42:38.423Z,43.77
2018-04-07T08:45:06.672Z,43.03
2018-04-07T08:47:34.943Z,42.73
2018-04-07T08:50:03.204Z,42.92
2018-04-07T08:52:31.452Z,43.66
2018-04-07T08:54:59.721Z,43.04
2018-04-07T08:57:28.014Z,41.67
2018-04-07T08:59:56.261Z,42.54
2018-04-07T09:02:25.661Z,41.36
2018-04-07T09:04:53.939Z,41.11
2018-04-07T09:07:22.192Z,42.09
2018-04-07T09:09:50.444Z,40.35
2018-04-07T09:12:19.496Z,40.37
2018-04-07T09:14:47.773Z,39.95
2018-04-07T09:17:16.044Z,40.17
2018-04-07T09:19:44.301Z,40.23
2018-04-07T09:22:13.346Z,39.42
2018-04-07T09:24:41.591Z,39.34
2018-04-07T09:27:10.620Z,39.50
2018-04-07T09:29:39.656Z,39.23
2018-04-07T09:32:07.973Z,39.11
2018-04-07T09:34:36.202Z,38.33
2018-04-07T09:37:05.224Z,38.36
2018-04-07T09:39:33.479Z,37.69
2018-04-07T09:42:01.819Z,38.55
2018-04-07T09:44:30.048Z,37.85
2018-04-07T09:46:58.389Z,38.28
2018-04-07T09:49:26.637Z,37.66
2018-04-07T09:51:54.894Z,38.83
2018-04-07T09:54:23.905Z,38.28
2018-04-07T09:56:52.186Z,37.40
2018-04-07T09:59:20.422Z,37.44
2018-04-07T10:01:48.688Z,37.64
2018-04-07T10:04:16.941Z,37.61
2018-04-07T10:06:45.229Z,36.90
2018-04-07T10:09:13.489Z,37.52
2018-04-07T10:11:42.520Z,36.93
2018-04-07T10:14:10.781Z,36.75
2018-04-07T10:16:39.796Z,35.77
2018-04-07T10:19:08.820Z,35.83
2018-04-07T10:21:37.089Z,35.89
2018-04-07T10:24:06.087Z,35.69
2018-04-07T10:26:35.122Z,35.46
2018-04-07T10:29:03.400Z,36.00
2018-04-07T10:31:31.685Z,36.30
2018-04-07T10:34:00.729Z,35.87
2018-04-07T10:36:29.745Z,34.60
2018-04-07T10:38:57.984Z,34.73
2018-04-07T10:41:27.035Z,34.65
2018-04-07T10:43:55.344Z,33.53
2018-04-07T10:46:23.612Z,33.67
2018-04-07T10:48:51.847Z,34.01
2018-04-07T10:51:20.876Z,33.60
2018-04-07T10:53:49.899Z,33.94
2018-04-07T10:56:18.153Z,33.31
2018-04-07T10:58:46.405Z,33.53
2018-04-07T11:01:14.700Z,33.62
2018-04-07T11:03:43.003Z,33.72
2018-04-07T11:06:11.314Z,33.17
2018-04-07T11:08:39.535Z,32.98
2018-04-07T11:11:08.532Z,33.75
2018-04-07T11:13:36.790Z,32.94
2018-04-07T11:16:05.823Z,32.56
2018-04-07T11:18:34.064Z,33.33
2018-04-07T11:21:02.322Z,32.19
2018-04-07T11:23:30.683Z,32.12
2018-04-07T11:25:58.969Z,31.41
2018-04-07T11:28:27.999Z,32.08
2018-04-07T11:30:56.283Z,32.47
2018-04-07T11:33:24.543Z,32.11
2018-04-07T11:35:53.655Z,31.60
2018-04-07T11:38:22.705Z,32.02
2018-04-07T11:40:50.945Z,31.26
2018-04-07T11:43:19.195Z,31.37
2018-04-07T11:45:47.450Z,31.21
2018-04-07T11:48:15.737Z,31.07
2018-04-07T11:50:44.046Z,30.41
2018-04-07T11:53:12.345Z,29.46
2018-04-07T11:55:40.545Z,29.28
2018-04-07T11:58:08.816Z,29.29
2018-04-07T12:00:37.980Z,29.10
2018-04-07T12:03:07.017Z,28.46
2018-04-07T12:05:35.276Z,28.46
2018-04-07T12:08:04.678Z,29.34
2018-04-07T12:10:33.025Z,28.31
2018-04-07T12:13:01.271Z,28.44
2018-04-07T12:15:30.280Z,26.97
2018-04-07T12:17:59.349Z,27.51
2018-04-07T12:20:27.600Z,27.92
2018-04-07T12:22:55.844Z,27.47
2018-04-07T12:25:24.148Z,27.20
2018-04-07T12:27:53.161Z,28.02
2018-04-07T12:30:22.186Z,27.20
2018-04-07T12:32:51.299Z,27.13
2018-04-07T12:35:19.549Z,26.96
2018-04-07T12:37:47.869Z,26.87
2018-04-07T12:40:16.208Z,27.06
2018-04-07T12:42:44.766Z,26.64
2018-04-07T12:45:13.068Z,26.42
2018-04-07T12:47:41.320Z,27.14
2018-04-07T12:50:10.344Z,26.54
2018-04-07T12:52:38.633Z,25.75
2018-04-07T12:55:07.650Z,26.00
2018-04-07T12:57:36.661Z,26.42
2018-04-07T13:00:04.914Z,26.04
2018-04-07T13:02:33.958Z,26.27
2018-04-07T13:05:02.240Z,26.01
2018-04-07T13:07:30.486Z,25.29
2018-04-07T13:09:59.526Z,24.48
2018-04-07T13:12:27.779Z,24.49
2018-04-07T13:14:56.036Z,24.54
2018-04-07T13:17:24.300Z,24.58
2018-04-07T13:19:52.561Z,24.97
2018-04-07T13:22:21.574Z,24.78
2018-04-07T13:24:50.604Z,24.17
2018-04-07T13:27:18.893Z,23.62
2018-04-07T13:29:47.889Z,23.46
2018-04-07T13:32:16.177Z,23.64
2018-04-07T13:34:44.455Z,23.73
2018-04-07T13:37:13.466Z,24.28
2018-04-07T13:39:42.585Z,23.59
2018-04-07T13:42:10.821Z,23.70
2018-04-07T13:44:39.078Z,23.19
2018-04-07T13:47:07.321Z,23.19
2018-04-07T13:49:36.345Z,22.39
2018-04-07T13:52:05.696Z,23.12
2018-04-07T13:54:33.959Z,23.51
2018-04-07T13:57:02.208Z,22.99
2018-04-07T13:59:30.453Z,22.77
2018-04-07T14:01:58.758Z,23.73
2018-04-07T14:04:27.042Z,23.48
2018-04-07T14:06:55.286Z,23.87
2018-04-07T14:09:24.293Z,23.12
2018-04-07T14:11:53.339Z,23.03
2018-04-07T14:14:21.602Z,23.15
2018-04-07T14:16:50.700Z,23.32
2018-04-07T14:19:18.891Z,23.91
2018-04-07T14:21:47.934Z,23.71
2018-04-07T14:24:16.181Z,24.09
2018-04-07T14:26:45.229Z,23.48
2018-04-07T14:29:13.482Z,23.45
2018-04-07T14:31:42.512Z,23.53
2018-04-07T14:34:10.751Z,23.40
2018-04-07T14:36:39.782Z,23.07
2018-04-07T14:39:08.789Z,23.06
2018-04-07T14:41:37.833Z,23.32
2018-04-07T14:44:06.081Z,22.79
2018-04-07T14:46:35.190Z,22.90
2018-04-07T14:49:04.196Z,22.80
2018-04-07T14:51:33.213Z,22.38
2018-04-07T14:54:01.469Z,21.88
2018-04-07T14:56:29.715Z,23.02
2018-04-07T14:58:57.956Z,22.96
2018-04-07T15:01:26.976Z,22.89
2018-04-07T15:03:56.089Z,22.04
2018-04-07T15:06:25.101Z,21.92
2018-04-07T15:08:54.108Z,21.79
2018-04-07T15:11:23.128Z,21.79
2018-04-07T15:13:51.367Z,22.16
2018-04-07T15:16:19.623Z,21.95
2018-04-07T15:18:47.872Z,22.47
2018-04-07T15:21:16.912Z,22.47
2018-04-07T15:23:45.169Z,22.76
2018-04-07T15:26:14.189Z,22.78
2018-04-07T15:28:42.442Z,23.53
2018-04-07T15:31:10.697Z,23.02
2018-04-07T15:33:38.932Z,23.01
2018-04-07T15:36:07.932Z,23.10
2018-04-07T15:38:36.948Z,23.12
2018-04-07T15:41:05.968Z,23.76
2018-04-07T15:43:35.088Z,23.64
2018-04-07T15:46:03.333Z,23.89
2018-04-07T15:48:31.664Z,24.15
2018-04-07T15:50:59.929Z,24.12
2018-04-07T15:53:28.190Z,24.32
2018-04-07T15:55:56.462Z,24.83
2018-04-07T15:58:24.760Z,25.30
2018-04-07T16:00:53.014Z,25.15
2018-04-07T16:03:21.288Z,25.69
2018-04-07T16:05:50.299Z,25.47
2018-04-07T16:08:18.565Z,25.30
2018-04-07T16:10:47.572Z,25.06
2018-04-07T16:13:15.844Z,25.50
2018-04-07T16:15:44.098Z,25.85
2018-04-07T16:18:12.378Z,25.88
2018-04-07T16:20:40.625Z,25.99
2018-04-07T16:23:09.649Z,26.33
2018-04-07T16:25:37.888Z,26.40
2018-04-07T16:28:06.139Z,26.60
2018-04-07T16:30:34.387Z,26.63
2018-04-07T16:33:02.652Z,26.41
2018-04-07T16:35:30.903Z,27.05
2018-04-07T16:37:59.179Z,27.00
2018-04-07T16:40:28.185Z,27.51
2018-04-07T16:42:57.205Z,27.50
2018-04-07T16:45:25.515Z,27.59
2018-04-07T16:47:53.758Z,27.68
2018-04-07T16:50:22.761Z,27.74
2018-04-07T16:52:52.546Z,27.45
2018-04-07T16:55:20.793Z,27.86
2018-04-07T16:57:50.576Z,28.13
2018-04-07T17:00:18.825Z,28.14
2018-04-07T17:02:47.100Z,28.39
2018-04-07T17:05:16.097Z,28.62
2018-04-07T17:07:45.140Z,29.24
2018-04-07T17:10:13.382Z,29.74
2018-04-07T17:12:42.432Z,30.42
2018-04-07T17:15:10.679Z,29.96
2018-04-07T17:17:40.450Z,29.72
2018-04-07T17:20:08.684Z,28.80
2018-04-07T17:22:37.823Z,29.88
2018-04-07T17:25:06.092Z,30.54
2018-04-07T17:27:35.105Z,30.54
2018-04-07T17:30:04.132Z,30.94
2018-04-07T17:32:32.385Z,32.12
2018-04-07T17:35:00.673Z,32.53
2018-04-07T17:37:28.908Z,32.79
2018-04-07T17:39:57.957Z,33.48
2018-04-07T17:42:26.196Z,32.53
2018-04-07T17:44:54.476Z,32.44
2018-04-07T17:47:22.740Z,32.32
2018-04-07T17:49:52.007Z,31.70
2018-04-07T17:52:21.793Z,31.98
2018-04-07T17:54:50.053Z,32.83
2018-04-07T17:57:18.287Z,33.32
2018-04-07T17:59:47.309Z,33.38
2018-04-07T18:02:15.556Z,33.58
2018-04-07T18:04:44.609Z,33.62
2018-04-07T18:07:12.850Z,33.95
2018-04-07T18:09:42.677Z,33.21
2018-04-07T18:12:11.832Z,32.20
2018-04-07T18:14:40.093Z,32.44
2018-04-07T18:17:08.373Z,32.34
2018-04-07T18:19:36.627Z,32.63
2018-04-07T18:22:04.902Z,32.84
2018-04-07T18:24:33.180Z,32.74
2018-04-07T18:27:01.469Z,33.48
2018-04-07T18:29:29.733Z,33.73
2018-04-07T18:31:58.801Z,33.81
2018-04-07T18:34:27.820Z,33.77
2018-04-07T18:36:56.841Z,33.19
2018-04-07T18:39:25.131Z,33.84
2018-04-07T18:41:53.384Z,33.80
2018-04-07T18:44:21.637Z,33.93
2018-04-07T18:46:49.894Z,33.73
2018-04-07T18:49:18.152Z,34.42
2018-04-07T18:51:46.425Z,34.69
2018-04-07T18:54:14.680Z,34.44
2018-04-07T18:56:42.978Z,34.70
2018-04-07T18:59:11.252Z,34.22
2018-04-07T19:01:39.530Z,34.00
2018-04-07T19:04:08.604Z,33.93
2018-04-07T19:06:36.849Z,34.41
2018-04-07T19:09:07.965Z,34.49
2018-04-07T19:11:36.990Z,34.66
2018-04-07T19:14:05.220Z,34.88
2018-04-07T19:16:34.242Z,34.58
2018-04-07T19:19:02.497Z,34.75
2018-04-07T19:21:30.756Z,35.08
2018-04-07T19:23:59.769Z,35.38
2018-04-07T19:26:28.823Z,35.07
2018-04-07T19:28:57.061Z,34.76
2018-04-07T19:31:25.322Z,34.89
2018-04-07T19:33:53.573Z,35.16
2018-04-07T19:36:21.838Z,34.56
2018-04-07T19:38:50.062Z,34.16
2018-04-07T19:41:18.396Z,34.40
2018-04-07T19:43:46.579Z,34.39
2018-04-07T19:46:14.853Z,34.72
2018-04-07T19:48:43.109Z,35.10
2018-04-07T19:51:11.387Z,34.23
2018-04-07T19:53:39.636Z,34.08
2018-04-07T19:56:08.659Z,34.44
2018-04-07T19:58:36.930Z,34.36
2018-04-07T20:01:05.944Z,34.83
2018-04-07T20:03:34.195Z,35.10
2018-04-07T20:06:02.460Z,35.28
2018-04-07T20:08:30.723Z,36.29
2018-04-07T20:10:58.964Z,36.04
2018-04-07T20:13:27.251Z,36.08
2018-04-07T20:15:55.498Z,36.54
2018-04-07T20:18:23.767Z,36.98
2018-04-07T20:20:52.813Z,37.54
2018-04-07T20:23:21.160Z,37.35
2018-04-07T20:25:50.189Z,37.94
2018-04-07T20:28:18.445Z,37.86
2018-04-07T20:30:47.472Z,38.23
2018-04-07T20:33:15.740Z,38.80
2018-04-07T20:35:44.012Z,39.40
2018-04-07T20:38:12.310Z,39.65
2018-04-07T20:40:40.564Z,39.34
2018-04-07T20:43:14.568Z,40.03
2018-04-07T20:45:42.808Z,40.13
2018-04-07T20:48:11.075Z,39.90
2018-04-07T20:50:39.332Z,40.32
2018-04-07T20:53:07.600Z,40.37
2018-04-07T20:55:36.617Z,40.34
2018-04-07T20:58:04.884Z,40.54
2018-04-07T21:00:33.141Z,40.72
2018-04-07T21:03:01.417Z,40.96
2018-04-07T21:05:29.661Z,40.77
2018-04-07T21:07:59.280Z,41.13
2018-04-07T21:10:28.654Z,41.04
2018-04-07T21:12:57.001Z,41.32
2018-04-07T21:17:51.332Z,41.56
2018-04-07T21:20:19.629Z,41.97
2018-04-07T21:22:47.886Z,41.97
2018-04-07T21:25:16.915Z,42.14
2018-04-07T21:27:45.176Z,43.41
2018-04-07T21:30:14.987Z,44.63
2018-04-07T21:32:44.771Z,44.67
2018-04-07T21:35:13.036Z,45.00
2018-04-07T21:37:42.275Z,44.15
2018-04-07T21:40:10.525Z,43.72
2018-04-07T21:42:39.565Z,43.24
2018-04-07T21:45:07.816Z,44.03
2018-04-07T21:47:36.821Z,44.11
2018-04-07T21:50:05.874Z,44.02
2018-04-07T21:52:34.150Z,44.38
2018-04-07T21:55:02.428Z,44.26
2018-04-07T21:57:31.438Z,44.59
2018-04-07T21:59:59.704Z,44.20
2018-04-07T22:02:28.715Z,44.11
2018-04-07T22:04:57.742Z,43.99
2018-04-07T22:07:25.996Z,44.34
2018-04-07T22:09:55.760Z,44.52
2018-04-07T22:12:24.013Z,44.53
2018-04-07T22:14:53.084Z,44.40
2018-04-07T22:17:21.358Z,44.49
2018-04-07T22:19:50.398Z,44.67
2018-04-07T22:22:18.646Z,44.80
2018-04-07T22:24:46.910Z,45.22
2018-04-07T22:27:15.158Z,45.19
2018-04-07T22:29:43.647Z,45.34
2018-04-07T22:32:11.917Z,45.38
2018-04-07T22:34:40.173Z,45.20
2018-04-07T22:37:09.188Z,45.91
2018-04-07T22:39:37.453Z,46.25
2018-04-07T22:42:06.499Z,47.20
2018-04-07T22:44:34.777Z,48.31
2018-04-07T22:47:03.024Z,48.81
2018-04-07T22:49:32.050Z,49.50
2018-04-07T22:52:01.088Z,50.34
2018-04-07T22:54:29.373Z,51.15
2018-04-07T22:56:57.632Z,51.49
2018-04-07T22:59:27.247Z,51.51
2018-04-07T23:01:57.021Z,51.18
2018-04-07T23:04:25.282Z,51.32
2018-04-07T23:06:54.326Z,51.83
2018-04-07T23:09:22.565Z,52.04
2018-04-07T23:11:51.601Z,52.34
2018-04-07T23:14:19.853Z,53.59
2018-04-07T23:16:48.116Z,54.24
2018-04-07T23:19:16.385Z,54.40
2018-04-07T23:21:44.667Z,54.81
2018-04-07T23:24:12.921Z,55.95
2018-04-07T23:26:41.972Z,56.32
2018-04-07T23:29:10.213Z,56.89
2018-04-07T23:31:38.477Z,57.35
2018-04-07T23:34:06.721Z,57.78
2018-04-07T23:36:34.981Z,58.20
2018-04-07T23:39:04.007Z,58.18
2018-04-07T23:41:32.297Z,58.92
2018-04-07T23:44:00.546Z,58.97
2018-04-07T23:46:28.813Z,58.98
2018-04-07T23:48:57.070Z,59.63
2018-04-07T23:51:25.321Z,59.84
2018-04-07T23:53:54.333Z,60.33
2018-04-07T23:56:23.369Z,60.45
2018-04-07T23:58:51.596Z,60.94
